Time;durP1;ratioP1;P1;durP2;ratioP2;P2;SDS_P1;SDS_P2;PMS_P1;PMS_P2;Temp;Humidity;BMP_temperature;BMP_pressure;BME280_temperature;BME280_humidity;BME280_pressure;Samples;Min_cycle;Max_cycle;Signal;HPM_P1;HPM_P2
2022/02/21 00:01:46;;;;;;;;;;;;;;;;;;5070647;28;19920;-78
2022/02/21 00:04:13;;;;;;;;;;;;;;;;;;5068022;28;19955;-77
2022/02/21 00:06:39;;;;;;;;;;;;;;;;;;5067718;28;19956;-77
2022/02/21 00:09:05;;;;;;;;;;;;;;;;;;5064873;28;19979;-77
2022/02/21 00:11:33;;;;;;;;;;;;;;;;;;5067064;28;19970;-77
2022/02/21 00:13:59;;;;;;;;;;;;;;;;;;5061174;28;20386;-77
2022/02/21 00:16:25;;;;;;;;;;;;;;;;;;5064237;28;19964;-77
2022/02/21 00:18:51;;;;;;;;;;;;;;;;;;5069201;28;19944;-77
2022/02/21 00:21:17;;;;;;;;;;;;;;;;;;5067343;28;19956;-77
2022/02/21 00:23:44;;;;;;;;;;;;;;;;;;5066607;28;20339;-77
2022/02/21 00:26:10;;;;;;;;;;;;;;;;;;5069441;28;19956;-78
2022/02/21 00:28:36;;;;;;;;;;;;;;;;;;5060322;28;20431;-77
2022/02/21 00:31:02;;;;;;;;;;;;;;;;;;5067747;28;19955;-77
2022/02/21 00:33:28;;;;;;;;;;;;;;;;;;5063218;28;19952;-77
2022/02/21 00:35:54;;;;;;;;;;;;;;;;;;5065243;28;19994;-77
2022/02/21 00:38:21;;;;;;;;;;;;;;;;;;5073041;28;19931;-75
2022/02/21 00:40:48;;;;;;;;;;;;;;;;;;5066283;28;19948;-76
2022/02/21 00:43:14;;;;;;;;;;;;;;;;;;5071281;28;19916;-78
2022/02/21 00:45:40;;;;;;;;;;;;;;;;;;5066364;28;19960;-77
2022/02/21 00:48:06;;;;;;;;;;;;;;;;;;5065535;28;20734;-77
2022/02/21 00:50:32;;;;;;;;;;;;;;;;;;5060752;28;20376;-77
2022/02/21 00:52:59;;;;;;;;;;;;;;;;;;5066542;28;19959;-77
2022/02/21 00:55:25;;;;;;;;;;;;;;;;;;5066592;28;19964;-76
2022/02/21 00:57:51;;;;;;;;;;;;;;;;;;5065886;28;20409;-77
2022/02/21 01:00:17;;;;;;;;;;;;;;;;;;5064989;28;19948;-76
2022/02/21 01:02:43;;;;;;;;;;;;;;;;;;5065464;28;20017;-77
2022/02/21 01:05:10;;;;;;;;;;;;;;;;;;5068208;28;19962;-77
2022/02/21 01:07:36;;;;;;;;;;;;;;;;;;5062058;28;19955;-78
2022/02/21 01:10:02;;;;;;;;;;;;;;;;;;5059964;28;20033;-79
2022/02/21 01:12:28;;;;;;;;;;;;;;;;;;5071888;28;20333;-78
2022/02/21 01:14:54;;;;;;;;;;;;;;;;;;5064394;28;19959;-76
2022/02/21 01:17:22;;;;;;;;;;;;;;;;;;5067320;28;19952;-76
2022/02/21 01:19:49;;;;;;;;;;;;;;;;;;5065934;28;20017;-76
2022/02/21 01:22:15;;;;;;;;;;;;;;;;;;5064539;28;19956;-78
2022/02/21 01:24:41;;;;;;;;;;;;;;;;;;5063964;28;20388;-78
2022/02/21 01:27:07;;;;;;;;;;;;;;;;;;5064269;28;20297;-78
2022/02/21 01:29:33;;;;;;;;;;;;;;;;;;5061629;28;19967;-78
2022/02/21 01:32:00;;;;;;;;;;;;;;;;;;5064850;28;19960;-78
2022/02/21 01:34:26;;;;;;;;;;;;;;;;;;5066635;28;19956;-77
2022/02/21 01:36:52;;;;;;;;;;;;;;;;;;5061266;27;19956;-77
2022/02/21 01:39:19;;;;;;;;;;;;;;;;;;5063950;28;19956;-77
2022/02/21 01:41:45;;;;;;;;;;;;;;;;;;5061133;28;19947;-77
2022/02/21 01:44:11;;;;;;;;;;;;;;;;;;5064526;28;19947;-75
2022/02/21 01:46:37;;;;;;;;;;;;;;;;;;5065657;28;19956;-75
2022/02/21 01:49:03;;;;;;;;;;;;;;;;;;5059764;28;19982;-75
2022/02/21 01:51:29;;;;;;;;;;;;;;;;;;5063434;28;19967;-77
2022/02/21 01:53:56;;;;;;;;;;;;;;;;;;5046221;28;19948;-76
2022/02/21 01:56:22;;;;;;;;;;;;;;;;;;5067879;28;19942;-76
2022/02/21 01:58:48;;;;;;;;;;;;;;;;;;5065663;28;20020;-76
2022/02/21 02:01:14;;;;;;;;;;;;;;;;;;5064638;28;19955;-76
2022/02/21 02:03:40;;;;;;;;;;;;;;;;;;5069139;28;20363;-76
2022/02/21 02:06:07;;;;;;;;;;;;;;;;;;5067334;28;19956;-76
2022/02/21 02:08:34;;;;;;;;;;;;;;;;;;5064714;28;19956;-76
2022/02/21 02:11:00;;;;;;;;;;;;;;;;;;5065169;28;19967;-76
2022/02/21 02:13:26;;;;;;;;;;;;;;;;;;5057882;28;19970;-76
2022/02/21 02:15:54;;;;;;;;;;;;;;;;;;5060188;28;19952;-75
2022/02/21 02:18:20;;;;;;;;;;;;;;;;;;5066229;28;19978;-75
2022/02/21 02:20:47;;;;;;;;;;;;;;;;;;5063934;28;19979;-75
2022/02/21 02:23:13;;;;;;;;;;;;;;;;;;5068606;28;19963;-76
2022/02/21 02:25:39;;;;;;;;;;;;;;;;;;5059658;28;19967;-76
2022/02/21 02:28:05;;;;;;;;;;;;;;;;;;5063100;28;19976;-77
2022/02/21 02:30:31;;;;;;;;;;;;;;;;;;5065334;28;19967;-76
2022/02/21 02:32:58;;;;;;;;;;;;;;;;;;5068583;28;19920;-76
2022/02/21 02:35:24;;;;;;;;;;;;;;;;;;5067950;28;19955;-76
2022/02/21 02:37:50;;;;;;;;;;;;;;;;;;5063368;28;19951;-76
2022/02/21 02:40:16;;;;;;;;;;;;;;;;;;5045278;28;19960;-77
2022/02/21 02:42:42;;;;;;;;;;;;;;;;;;5052789;28;20024;-75
2022/02/21 02:45:09;;;;;;;;;;;;;;;;;;5068175;28;19970;-76
2022/02/21 02:47:35;;;;;;;;;;;;;;;;;;5067112;28;19956;-76
2022/02/21 02:50:01;;;;;;;;;;;;;;;;;;5067312;28;19986;-76
2022/02/21 02:52:27;;;;;;;;;;;;;;;;;;5068384;28;20014;-75
2022/02/21 02:54:53;;;;;;;;;;;;;;;;;;5068328;28;19952;-76
2022/02/21 02:57:20;;;;;;;;;;;;;;;;;;5071334;28;19959;-76
2022/02/21 02:59:46;;;;;;;;;;;;;;;;;;5070031;28;20364;-76
2022/02/21 03:02:12;;;;;;;;;;;;;;;;;;5069070;28;20413;-76
2022/02/21 03:04:38;;;;;;;;;;;;;;;;;;5074870;28;20388;-77
2022/02/21 03:07:04;;;;;;;;;;;;;;;;;;5071110;28;19947;-76
2022/02/21 03:09:31;;;;;;;;;;;;;;;;;;5068276;28;20450;-76
2022/02/21 03:11:57;;;;;;;;;;;;;;;;;;5070706;28;19970;-77
2022/02/21 03:14:23;;;;;;;;;;;;;;;;;;5069251;28;19959;-77
2022/02/21 03:16:49;;;;;;;;;;;;;;;;;;5071982;28;19964;-76
2022/02/21 03:19:15;;;;;;;;;;;;;;;;;;5067871;28;19955;-76
2022/02/21 03:21:42;;;;;;;;;;;;;;;;;;5069670;28;20819;-76
2022/02/21 03:24:08;;;;;;;;;;;;;;;;;;5069562;28;19952;-77
2022/02/21 03:26:34;;;;;;;;;;;;;;;;;;5069899;28;20344;-78
2022/02/21 03:29:00;;;;;;;;;;;;;;;;;;5068001;28;19964;-75
2022/02/21 03:31:26;;;;;;;;;;;;;;;;;;5068656;28;19984;-75
2022/02/21 03:33:52;;;;;;;;;;;;;;;;;;5068380;28;19967;-76
2022/02/21 03:36:19;;;;;;;;;;;;;;;;;;5068138;28;20025;-75
2022/02/21 03:38:45;;;;;;;;;;;;;;;;;;5067738;28;19959;-74
2022/02/21 03:41:11;;;;;;;;;;;;;;;;;;5063866;28;20543;-78
2022/02/21 03:43:37;;;;;;;;;;;;;;;;;;5066049;28;19956;-76
2022/02/21 03:46:03;;;;;;;;;;;;;;;;;;5066743;28;20361;-77
2022/02/21 03:48:30;;;;;;;;;;;;;;;;;;5071648;28;19924;-78
2022/02/21 03:50:56;;;;;;;;;;;;;;;;;;5070221;28;20379;-77
2022/02/21 03:53:22;;;;;;;;;;;;;;;;;;5067085;28;20020;-76
2022/02/21 03:55:48;;;;;;;;;;;;;;;;;;5064702;28;19940;-76
2022/02/21 03:58:15;;;;;;;;;;;;;;;;;;5070124;28;19952;-77
2022/02/21 04:00:41;;;;;;;;;;;;;;;;;;5068537;28;19987;-77
2022/02/21 04:03:07;;;;;;;;;;;;;;;;;;5067850;28;19978;-77
2022/02/21 04:05:33;;;;;;;;;;;;;;;;;;5068471;28;19955;-76
2022/02/21 04:07:59;;;;;;;;;;;;;;;;;;5067458;28;20362;-76
2022/02/21 04:10:26;;;;;;;;;;;;;;;;;;5068367;28;19963;-78
2022/02/21 04:12:52;;;;;;;;;;;;;;;;;;5063126;28;19952;-77
2022/02/21 04:15:18;;;;;;;;;;;;;;;;;;5071131;28;19974;-78
2022/02/21 04:17:44;;;;;;;;;;;;;;;;;;5065779;28;19920;-79
2022/02/21 04:20:10;;;;;;;;;;;;;;;;;;5070751;28;20386;-77
2022/02/21 04:22:37;;;;;;;;;;;;;;;;;;5069123;28;19983;-77
2022/02/21 04:25:03;;;;;;;;;;;;;;;;;;5064620;28;19968;-77
2022/02/21 04:27:29;;;;;;;;;;;;;;;;;;5063233;28;19959;-76
2022/02/21 04:29:55;;;;;;;;;;;;;;;;;;5065008;28;19966;-77
2022/02/21 04:32:21;;;;;;;;;;;;;;;;;;5070531;28;19947;-78
2022/02/21 04:34:48;;;;;;;;;;;;;;;;;;5067588;28;19956;-77
2022/02/21 04:37:15;;;;;;;;;;;;;;;;;;5068653;28;19951;-77
2022/02/21 04:39:41;;;;;;;;;;;;;;;;;;5064784;28;19971;-77
2022/02/21 04:42:07;;;;;;;;;;;;;;;;;;5063911;28;19952;-77
2022/02/21 04:44:33;;;;;;;;;;;;;;;;;;5067277;28;20351;-77
2022/02/21 04:46:59;;;;;;;;;;;;;;;;;;5065047;28;20002;-77
2022/02/21 04:49:25;;;;;;;;;;;;;;;;;;5067727;28;19948;-77
2022/02/21 04:51:52;;;;;;;;;;;;;;;;;;5065761;28;19959;-76
2022/02/21 04:54:18;;;;;;;;;;;;;;;;;;5061657;28;19960;-77
2022/02/21 04:56:44;;;;;;;;;;;;;;;;;;5069062;28;19927;-76
2022/02/21 04:59:10;;;;;;;;;;;;;;;;;;5065013;28;19956;-77
2022/02/21 05:01:37;;;;;;;;;;;;;;;;;;5065128;28;19959;-77
2022/02/21 05:04:03;;;;;;;;;;;;;;;;;;5066358;28;19986;-77
2022/02/21 05:06:29;;;;;;;;;;;;;;;;;;5066738;28;20380;-77
2022/02/21 05:08:55;;;;;;;;;;;;;;;;;;5068613;28;20700;-77
2022/02/21 05:11:21;;;;;;;;;;;;;;;;;;5066880;28;19947;-76
2022/02/21 05:13:47;;;;;;;;;;;;;;;;;;5060462;28;20001;-75
2022/02/21 05:16:14;;;;;;;;;;;;;;;;;;5070177;28;19951;-77
2022/02/21 05:18:40;;;;;;;;;;;;;;;;;;5065932;28;19970;-76
2022/02/21 05:21:06;;;;;;;;;;;;;;;;;;5064345;28;20344;-76
2022/02/21 05:23:33;;;;;;;;;;;;;;;;;;5070052;28;19963;-76
2022/02/21 05:25:59;;;;;;;;;;;;;;;;;;5065533;28;19956;-77
2022/02/21 05:28:25;;;;;;;;;;;;;;;;;;5068096;28;20005;-77
2022/02/21 05:30:51;;;;;;;;;;;;;;;;;;5067195;28;20369;-76
2022/02/21 05:33:17;;;;;;;;;;;;;;;;;;5060593;28;19967;-78
2022/02/21 05:35:44;;;;;;;;;;;;;;;;;;5068232;28;19964;-77
2022/02/21 05:38:11;;;;;;;;;;;;;;;;;;5068126;28;20453;-77
2022/02/21 05:40:37;;;;;;;;;;;;;;;;;;5061649;28;19968;-78
2022/02/21 05:43:03;;;;;;;;;;;;;;;;;;5065848;28;19959;-80
2022/02/21 05:45:30;;;;;;;;;;;;;;;;;;5063470;28;19940;-78
2022/02/21 05:47:56;;;;;;;;;;;;;;;;;;5063151;28;19956;-79
2022/02/21 05:50:22;;;;;;;;;;;;;;;;;;5061708;28;19986;-78
2022/02/21 05:52:48;;;;;;;;;;;;;;;;;;5065215;28;19986;-77
2022/02/21 05:55:14;;;;;;;;;;;;;;;;;;5065632;28;19959;-77
2022/02/21 05:57:41;;;;;;;;;;;;;;;;;;5066226;28;19916;-77
2022/02/21 06:00:07;;;;;;;;;;;;;;;;;;5060780;28;19982;-78
2022/02/21 06:02:33;;;;;;;;;;;;;;;;;;5064142;28;19978;-79
2022/02/21 06:04:59;;;;;;;;;;;;;;;;;;5064908;28;19956;-79
2022/02/21 06:07:25;;;;;;;;;;;;;;;;;;5063758;28;20013;-79
2022/02/21 06:09:52;;;;;;;;;;;;;;;;;;5062416;28;19963;-79
2022/02/21 06:12:18;;;;;;;;;;;;;;;;;;5064663;28;19952;-79
2022/02/21 06:14:44;;;;;;;;;;;;;;;;;;5062407;28;19960;-78
2022/02/21 06:17:10;;;;;;;;;;;;;;;;;;5062396;28;20369;-79
2022/02/21 06:19:36;;;;;;;;;;;;;;;;;;5063900;28;19967;-80
2022/02/21 06:22:02;;;;;;;;;;;;;;;;;;5063218;28;19932;-80
2022/02/21 06:24:29;;;;;;;;;;;;;;;;;;5064746;28;19944;-81
2022/02/21 06:26:55;;;;;;;;;;;;;;;;;;5064256;28;19967;-80
2022/02/21 06:29:21;;;;;;;;;;;;;;;;;;5064908;28;19983;-80
2022/02/21 06:31:47;;;;;;;;;;;;;;;;;;5053151;28;19944;-80
2022/02/21 06:34:13;;;;;;;;;;;;;;;;;;5075214;28;20438;-78
2022/02/21 06:36:40;;;;;;;;;;;;;;;;;;5066311;28;19951;-77
2022/02/21 06:39:06;;;;;;;;;;;;;;;;;;5063363;28;20070;-78
2022/02/21 06:41:32;;;;;;;;;;;;;;;;;;5062247;28;20015;-76
2022/02/21 06:43:59;;;;;;;;;;;;;;;;;;5059075;28;19913;-77
2022/02/21 06:46:25;;;;;;;;;;;;;;;;;;5062842;28;19967;-79
2022/02/21 06:48:52;;;;;;;;;;;;;;;;;;5047875;28;20317;-83
2022/02/21 06:51:18;;;;;;;;;;;;;;;;;;5070439;28;19956;-81
2022/02/21 06:53:44;;;;;;;;;;;;;;;;;;5066770;28;19964;-80
2022/02/21 06:56:10;;;;;;;;;;;;;;;;;;5067369;28;19951;-80
2022/02/21 06:58:37;;;;;;;;;;;;;;;;;;5069194;28;19963;-79
2022/02/21 07:01:03;;;;;;;;;;;;;;;;;;5066638;28;19967;-78
2022/02/21 07:03:29;;;;;;;;;;;;;;;;;;5069339;28;20676;-80
2022/02/21 07:05:55;;;;;;;;;;;;;;;;;;5065270;28;19948;-79
2022/02/21 07:08:21;;;;;;;;;;;;;;;;;;5064796;28;19948;-78
2022/02/21 07:10:48;;;;;;;;;;;;;;;;;;5065361;28;19959;-79
2022/02/21 07:13:14;;;;;;;;;;;;;;;;;;5066289;28;20406;-79
2022/02/21 07:15:40;;;;;;;;;;;;;;;;;;5063632;28;19948;-79
2022/02/21 07:18:10;;;;;;;;;;;;;;;;;;5063481;28;19964;-77
2022/02/21 07:20:37;;;;;;;;;;;;;;;;;;5065704;28;19972;-78
2022/02/21 07:23:03;;;;;;;;;;;;;;;;;;5063858;28;19956;-79
2022/02/21 07:25:29;;;;;;;;;;;;;;;;;;5065724;28;19956;-79
2022/02/21 07:27:55;;;;;;;;;;;;;;;;;;5061958;28;20340;-80
2022/02/21 07:30:26;;;;;;;;;;;;;;;;;;5066304;28;19928;-81
2022/02/21 07:32:52;;;;;;;;;;;;;;;;;;5063891;28;19960;-81
2022/02/21 07:35:18;;;;;;;;;;;;;;;;;;5068801;28;20293;-81
2022/02/21 07:37:44;;;;;;;;;;;;;;;;;;5062838;28;19960;-79
2022/02/21 07:40:11;;;;;;;;;;;;;;;;;;5066524;28;19967;-81
2022/02/21 07:42:39;;;;;;;;;;;;;;;;;;5070065;28;19959;-82
2022/02/21 07:45:05;;;;;;;;;;;;;;;;;;5059712;28;20476;-78
2022/02/21 07:47:32;;;;;;;;;;;;;;;;;;5066731;28;20009;-78
2022/02/21 07:49:58;;;;;;;;;;;;;;;;;;5059905;28;19960;-79
2022/02/21 07:52:25;;;;;;;;;;;;;;;;;;5065894;28;19968;-78
2022/02/21 07:54:51;;;;;;;;;;;;;;;;;;5064364;28;19955;-82
2022/02/21 07:57:18;;;;;;;;;;;;;;;;;;5063116;28;19951;-82
2022/02/21 07:59:44;;;;;;;;;;;;;;;;;;5065300;28;19989;-81
2022/02/21 08:02:10;;;;;;;;;;;;;;;;;;5065985;28;20062;-80
2022/02/21 08:04:36;;;;;;;;;;;;;;;;;;5064257;28;19963;-80
2022/02/21 08:07:02;;;;;;;;;;;;;;;;;;5066161;28;20471;-80
2022/02/21 08:09:29;;;;;;;;;;;;;;;;;;5060159;28;20391;-80
2022/02/21 08:11:55;;;;;;;;;;;;;;;;;;5061342;28;19952;-81
2022/02/21 08:14:22;;;;;;;;;;;;;;;;;;5066288;28;20403;-80
2022/02/21 08:16:48;;;;;;;;;;;;;;;;;;5066307;28;19952;-80
2022/02/21 08:19:14;;;;;;;;;;;;;;;;;;5063194;28;20443;-80
2022/02/21 08:21:44;;;;;;;;;;;;;;;;;;5064765;28;19971;-81
2022/02/21 08:24:10;;;;;;;;;;;;;;;;;;5063850;28;19964;-80
2022/02/21 08:26:36;;;;;;;;;;;;;;;;;;5060865;28;19956;-78
2022/02/21 08:29:03;;;;;;;;;;;;;;;;;;5065962;28;21588;-79
2022/02/21 08:31:29;;;;;;;;;;;;;;;;;;5067242;28;19970;-80
2022/02/21 08:33:55;;;;;;;;;;;;;;;;;;5052919;27;19971;-78
2022/02/21 08:36:21;;;;;;;;;;;;;;;;;;5063506;28;20293;-78
2022/02/21 08:38:47;;;;;;;;;;;;;;;;;;5064731;28;19952;-79
2022/02/21 08:41:13;;;;;;;;;;;;;;;;;;5065898;28;19962;-79
2022/02/21 08:43:40;;;;;;;;;;;;;;;;;;5065682;28;19955;-80
2022/02/21 08:46:06;;;;;;;;;;;;;;;;;;5065719;28;19959;-79
2022/02/21 08:48:32;;;;;;;;;;;;;;;;;;5061713;28;19970;-80
2022/02/21 08:50:58;;;;;;;;;;;;;;;;;;5065469;28;19955;-80
2022/02/21 08:53:24;;;;;;;;;;;;;;;;;;5066712;28;20333;-80
2022/02/21 08:55:51;;;;;;;;;;;;;;;;;;5062548;28;19960;-79
2022/02/21 08:58:17;;;;;;;;;;;;;;;;;;5066346;28;19967;-80
2022/02/21 09:00:43;;;;;;;;;;;;;;;;;;5068832;28;20352;-75
2022/02/21 09:03:09;;;;;;;;;;;;;;;;;;5063824;28;19959;-80
2022/02/21 09:05:35;;;;;;;;;;;;;;;;;;5064626;28;20462;-80
2022/02/21 09:08:02;;;;;;;;;;;;;;;;;;5067540;28;19962;-80
2022/02/21 09:10:28;;;;;;;;;;;;;;;;;;5066379;28;19975;-80
2022/02/21 09:12:55;;;;;;;;;;;;;;;;;;5065056;28;19948;-80
2022/02/21 09:15:21;;;;;;;;;;;;;;;;;;5065633;28;19955;-80
2022/02/21 09:17:48;;;;;;;;;;;;;;;;;;5064640;28;20401;-79
2022/02/21 09:20:15;;;;;;;;;;;;;;;;;;5053029;28;19967;-81
2022/02/21 09:22:41;;;;;;;;;;;;;;;;;;5062155;28;19952;-80
2022/02/21 09:25:07;;;;;;;;;;;;;;;;;;5067407;28;20020;-79
2022/02/21 09:27:35;;;;;;;;;;;;;;;;;;5065433;28;19948;-77
2022/02/21 09:30:02;;;;;;;;;;;;;;;;;;5069867;28;19956;-80
2022/02/21 09:32:29;;;;;;;;;;;;;;;;;;5068139;28;19966;-80
2022/02/21 09:34:56;;;;;;;;;;;;;;;;;;5063766;28;19956;-80
2022/02/21 09:37:22;;;;;;;;;;;;;;;;;;5066977;28;19913;-80
2022/02/21 09:39:49;;;;;;;;;;;;;;;;;;5062696;28;19955;-79
2022/02/21 09:42:15;;;;;;;;;;;;;;;;;;5063229;28;19963;-80
2022/02/21 09:44:41;;;;;;;;;;;;;;;;;;5062395;28;19967;-80
2022/02/21 09:47:07;;;;;;;;;;;;;;;;;;5063982;28;20791;-80
2022/02/21 09:49:33;;;;;;;;;;;;;;;;;;5058804;28;19948;-79
2022/02/21 09:52:00;;;;;;;;;;;;;;;;;;5065091;28;19958;-80
2022/02/21 09:54:26;;;;;;;;;;;;;;;;;;5064440;28;19970;-80
2022/02/21 09:56:55;;;;;;;;;;;;;;;;;;5066317;28;19974;-79
2022/02/21 09:59:21;;;;;;;;;;;;;;;;;;5064514;28;19956;-80
2022/02/21 10:01:47;;;;;;;;;;;;;;;;;;5071018;28;19959;-80
2022/02/21 10:04:14;;;;;;;;;;;;;;;;;;5066152;28;19959;-80
2022/02/21 10:06:40;;;;;;;;;;;;;;;;;;5067945;28;20390;-80
2022/02/21 10:09:10;;;;;;;;;;;;;;;;;;5064955;28;20007;-80
2022/02/21 10:11:36;;;;;;;;;;;;;;;;;;5064139;28;20555;-80
2022/02/21 10:14:02;;;;;;;;;;;;;;;;;;5058352;28;20409;-80
2022/02/21 10:16:29;;;;;;;;;;;;;;;;;;5067436;28;19954;-79
2022/02/21 10:18:55;;;;;;;;;;;;;;;;;;5065560;28;19955;-80
2022/02/21 10:21:21;;;;;;;;;;;;;;;;;;5068074;28;20020;-80
2022/02/21 10:23:47;;;;;;;;;;;;;;;;;;5064518;28;19952;-80
2022/02/21 10:26:13;;;;;;;;;;;;;;;;;;5073056;27;19967;-80
2022/02/21 10:28:40;;;;;;;;;;;;;;;;;;5068402;28;19964;-80
2022/02/21 10:31:06;;;;;;;;;;;;;;;;;;5067776;28;19964;-81
2022/02/21 10:33:32;;;;;;;;;;;;;;;;;;5067300;28;20510;-81
2022/02/21 10:35:58;;;;;;;;;;;;;;;;;;5066788;28;19948;-80
2022/02/21 10:38:24;;;;;;;;;;;;;;;;;;5068518;28;19948;-80
2022/02/21 10:40:50;;;;;;;;;;;;;;;;;;5065034;28;19956;-78
2022/02/21 10:43:17;;;;;;;;;;;;;;;;;;5067983;28;19959;-78
2022/02/21 10:45:43;;;;;;;;;;;;;;;;;;5064077;28;20356;-78
2022/02/21 10:48:09;;;;;;;;;;;;;;;;;;5067895;28;21163;-79
2022/02/21 10:50:38;;;;;;;;;;;;;;;;;;5073816;28;20461;-78
2022/02/21 10:53:04;;;;;;;;;;;;;;;;;;5070282;28;19963;-79
2022/02/21 10:55:31;;;;;;;;;;;;;;;;;;5067546;28;19960;-79
2022/02/21 10:57:57;;;;;;;;;;;;;;;;;;5066524;27;20380;-80
2022/02/21 11:00:23;;;;;;;;;;;;;;;;;;5069344;28;20003;-79
2022/02/21 11:02:49;;;;;;;;;;;;;;;;;;5068918;28;19962;-78
2022/02/21 11:05:15;;;;;;;;;;;;;;;;;;5069911;28;20473;-78
2022/02/21 11:07:42;;;;;;;;;;;;;;;;;;5065953;28;19924;-82
2022/02/21 11:10:08;;;;;;;;;;;;;;;;;;5069895;28;19979;-80
2022/02/21 11:12:37;;;;;;;;;;;;;;;;;;5069565;28;19952;-79
2022/02/21 11:15:03;;;;;;;;;;;;;;;;;;5059521;28;19966;-79
2022/02/21 11:17:30;;;;;;;;;;;;;;;;;;5066831;28;19944;-80
2022/02/21 11:19:56;;;;;;;;;;;;;;;;;;5067763;28;19959;-79
2022/02/21 11:22:22;;;;;;;;;;;;;;;;;;5065814;28;19952;-79
2022/02/21 11:24:48;;;;;;;;;;;;;;;;;;5065048;28;20412;-79
2022/02/21 11:27:15;;;;;;;;;;;;;;;;;;5063575;28;20055;-79
2022/02/21 11:29:41;;;;;;;;;;;;;;;;;;5053641;27;19951;-79
2022/02/21 11:32:07;;;;;;;;;;;;;;;;;;5061539;28;20387;-79
2022/02/21 11:34:33;;;;;;;;;;;;;;;;;;5069837;28;20006;-79
2022/02/21 11:36:59;;;;;;;;;;;;;;;;;;5065227;28;19951;-79
2022/02/21 11:39:26;;;;;;;;;;;;;;;;;;5067104;28;19960;-78
2022/02/21 11:41:53;;;;;;;;;;;;;;;;;;5062488;28;19948;-79
2022/02/21 11:44:19;;;;;;;;;;;;;;;;;;5064047;28;19956;-79
2022/02/21 11:46:46;;;;;;;;;;;;;;;;;;5061464;28;19964;-82
2022/02/21 11:49:12;;;;;;;;;;;;;;;;;;5064578;28;20032;-82
2022/02/21 11:51:38;;;;;;;;;;;;;;;;;;5065035;28;19954;-83
2022/02/21 11:54:04;;;;;;;;;;;;;;;;;;5065202;28;20667;-84
2022/02/21 11:56:30;;;;;;;;;;;;;;;;;;5071723;28;19928;-88
2022/02/21 11:58:57;;;;;;;;;;;;;;;;;;5045655;28;19916;-82
2022/02/21 12:01:23;;;;;;;;;;;;;;;;;;5064336;28;19960;-82
2022/02/21 12:03:49;;;;;;;;;;;;;;;;;;5068754;28;19952;-82
2022/02/21 12:06:17;;;;;;;;;;;;;;;;;;5068578;28;20462;-82
2022/02/21 12:08:43;;;;;;;;;;;;;;;;;;5066127;28;20372;-83
2022/02/21 12:11:14;;;;;;;;;;;;;;;;;;5064248;28;21383;-83
2022/02/21 12:13:40;;;;;;;;;;;;;;;;;;5073849;28;19980;-84
2022/02/21 12:16:07;;;;;;;;;;;;;;;;;;5068566;28;19948;-84
2022/02/21 12:18:33;;;;;;;;;;;;;;;;;;5068661;28;20748;-82
2022/02/21 12:21:00;;;;;;;;;;;;;;;;;;5064266;28;19964;-84
2022/02/21 12:23:28;;;;;;;;;;;;;;;;;;5069050;28;19947;-84
2022/02/21 12:25:54;;;;;;;;;;;;;;;;;;5060975;28;19955;-86
2022/02/21 12:28:20;;;;;;;;;;;;;;;;;;5071267;28;19916;-84
2022/02/21 12:30:46;;;;;;;;;;;;;;;;;;5072165;28;19964;-84
2022/02/21 12:33:13;;;;;;;;;;;;;;;;;;5064556;28;19978;-83
2022/02/21 12:35:39;;;;;;;;;;;;;;;;;;5070219;28;20501;-84
2022/02/21 12:38:05;;;;;;;;;;;;;;;;;;5065354;28;19956;-84
2022/02/21 12:40:31;;;;;;;;;;;;;;;;;;5072158;28;19956;-83
2022/02/21 12:42:57;;;;;;;;;;;;;;;;;;5069628;28;19956;-85
2022/02/21 12:45:24;;;;;;;;;;;;;;;;;;5067301;28;20485;-84
2022/02/21 12:47:50;;;;;;;;;;;;;;;;;;5068416;28;19960;-84
2022/02/21 12:50:16;;;;;;;;;;;;;;;;;;5065141;28;19963;-83
2022/02/21 12:52:42;;;;;;;;;;;;;;;;;;5060704;28;19964;-84
2022/02/21 12:55:09;;;;;;;;;;;;;;;;;;5067173;28;19940;-83
2022/02/21 12:57:35;;;;;;;;;;;;;;;;;;5067732;28;19990;-83
2022/02/21 13:00:01;;;;;;;;;;;;;;;;;;5065643;28;19951;-84
2022/02/21 13:02:27;;;;;;;;;;;;;;;;;;5073852;28;19917;-84
2022/02/21 13:04:53;;;;;;;;;;;;;;;;;;5067362;28;19959;-84
2022/02/21 13:07:20;;;;;;;;;;;;;;;;;;5077060;28;20957;-84
2022/02/21 13:09:48;;;;;;;;;;;;;;;;;;5069727;28;19967;-84
2022/02/21 13:12:14;;;;;;;;;;;;;;;;;;5066400;28;19955;-84
2022/02/21 13:14:41;;;;;;;;;;;;;;;;;;5067259;28;19956;-84
2022/02/21 13:17:07;;;;;;;;;;;;;;;;;;5064638;28;20096;-84
2022/02/21 13:19:33;;;;;;;;;;;;;;;;;;5063435;28;20056;-82
2022/02/21 13:21:59;;;;;;;;;;;;;;;;;;5061731;28;19947;-83
2022/02/21 13:24:27;;;;;;;;;;;;;;;;;;5064170;28;20133;-80
2022/02/21 13:26:53;;;;;;;;;;;;;;;;;;5062861;28;19959;-78
2022/02/21 13:29:19;;;;;;;;;;;;;;;;;;5065884;28;19967;-81
2022/02/21 13:31:46;;;;;;;;;;;;;;;;;;5062424;28;19964;-79
2022/02/21 13:34:12;;;;;;;;;;;;;;;;;;5065814;28;21103;-79
2022/02/21 13:36:38;;;;;;;;;;;;;;;;;;5066835;28;19959;-78
2022/02/21 13:39:04;;;;;;;;;;;;;;;;;;5064802;28;19974;-79
2022/02/21 13:41:30;;;;;;;;;;;;;;;;;;5062611;28;19962;-79
2022/02/21 13:43:56;;;;;;;;;;;;;;;;;;5063857;28;20376;-78
2022/02/21 13:46:23;;;;;;;;;;;;;;;;;;5065528;28;20011;-78
2022/02/21 13:48:49;;;;;;;;;;;;;;;;;;5064003;28;19919;-78
2022/02/21 13:51:15;;;;;;;;;;;;;;;;;;5068135;28;20399;-79
2022/02/21 13:53:42;;;;;;;;;;;;;;;;;;5065015;28;19941;-81
2022/02/21 13:56:11;;;;;;;;;;;;;;;;;;5064131;28;19956;-80
2022/02/21 13:58:37;;;;;;;;;;;;;;;;;;5067688;28;19948;-78
2022/02/21 14:01:03;;;;;;;;;;;;;;;;;;5061560;28;19943;-78
2022/02/21 14:03:29;;;;;;;;;;;;;;;;;;5066178;28;19971;-78
2022/02/21 14:05:56;;;;;;;;;;;;;;;;;;5066812;28;20006;-80
2022/02/21 14:08:22;;;;;;;;;;;;;;;;;;5066958;28;19964;-80
2022/02/21 14:10:48;;;;;;;;;;;;;;;;;;5063212;28;20388;-78
2022/02/21 14:13:14;;;;;;;;;;;;;;;;;;5061526;28;19959;-79
2022/02/21 14:15:40;;;;;;;;;;;;;;;;;;5063285;28;19966;-79
2022/02/21 14:18:07;;;;;;;;;;;;;;;;;;5062993;28;19932;-79
2022/02/21 14:20:33;;;;;;;;;;;;;;;;;;5066652;28;19925;-78
2022/02/21 14:22:59;;;;;;;;;;;;;;;;;;5064276;28;19959;-79
2022/02/21 14:25:26;;;;;;;;;;;;;;;;;;5059380;28;20457;-78
2022/02/21 14:27:52;;;;;;;;;;;;;;;;;;5063444;28;19964;-77
2022/02/21 14:30:18;;;;;;;;;;;;;;;;;;5065419;28;19982;-78
2022/02/21 14:32:45;;;;;;;;;;;;;;;;;;5064370;28;20442;-77
2022/02/21 14:35:11;;;;;;;;;;;;;;;;;;5063938;28;19967;-79
2022/02/21 14:37:37;;;;;;;;;;;;;;;;;;5064944;28;19952;-78
2022/02/21 14:40:04;;;;;;;;;;;;;;;;;;5062334;28;19924;-79
2022/02/21 14:42:31;;;;;;;;;;;;;;;;;;5062943;28;19955;-79
2022/02/21 14:44:58;;;;;;;;;;;;;;;;;;5061943;28;19963;-79
2022/02/21 14:47:24;;;;;;;;;;;;;;;;;;5062047;28;19975;-79
2022/02/21 14:49:50;;;;;;;;;;;;;;;;;;5059731;28;19964;-78
2022/02/21 14:52:16;;;;;;;;;;;;;;;;;;5061553;28;19956;-79
2022/02/21 14:54:42;;;;;;;;;;;;;;;;;;5061476;28;19959;-79
2022/02/21 14:57:09;;;;;;;;;;;;;;;;;;5062940;28;20665;-79
2022/02/21 14:59:35;;;;;;;;;;;;;;;;;;5062482;28;19974;-80
2022/02/21 15:02:01;;;;;;;;;;;;;;;;;;5061678;28;19952;-80
2022/02/21 15:04:27;;;;;;;;;;;;;;;;;;5063637;28;19956;-80
2022/02/21 15:06:54;;;;;;;;;;;;;;;;;;5060533;28;19917;-78
2022/02/21 15:09:20;;;;;;;;;;;;;;;;;;5065031;28;19971;-78
2022/02/21 15:11:46;;;;;;;;;;;;;;;;;;5064159;28;19948;-79
2022/02/21 15:14:12;;;;;;;;;;;;;;;;;;5067124;28;19974;-80
2022/02/21 15:16:38;;;;;;;;;;;;;;;;;;5067842;28;20008;-77
2022/02/21 15:19:05;;;;;;;;;;;;;;;;;;5063925;28;19974;-78
2022/02/21 15:21:31;;;;;;;;;;;;;;;;;;5070138;28;20426;-78
2022/02/21 15:23:57;;;;;;;;;;;;;;;;;;5064144;28;19968;-77
2022/02/21 15:26:23;;;;;;;;;;;;;;;;;;5063518;28;19951;-77
2022/02/21 15:28:49;;;;;;;;;;;;;;;;;;5064527;28;19956;-80
2022/02/21 15:31:16;;;;;;;;;;;;;;;;;;5066253;28;20011;-78
2022/02/21 15:33:42;;;;;;;;;;;;;;;;;;5070747;28;19969;-77
2022/02/21 15:36:08;;;;;;;;;;;;;;;;;;5066580;28;20009;-79
2022/02/21 15:38:37;;;;;;;;;;;;;;;;;;5064200;28;19992;-82
2022/02/21 15:41:08;;;;;;;;;;;;;;;;;;5068209;28;20016;-80
2022/02/21 15:43:34;;;;;;;;;;;;;;;;;;5061750;28;20328;-78
2022/02/21 15:46:01;;;;;;;;;;;;;;;;;;5065155;28;20008;-81
2022/02/21 15:48:27;;;;;;;;;;;;;;;;;;5057817;28;19963;-77
2022/02/21 15:50:53;;;;;;;;;;;;;;;;;;5062559;28;19971;-76
2022/02/21 15:53:20;;;;;;;;;;;;;;;;;;5061667;28;19947;-77
2022/02/21 15:55:46;;;;;;;;;;;;;;;;;;5067345;28;19948;-77
2022/02/21 15:58:12;;;;;;;;;;;;;;;;;;5065906;28;19942;-78
2022/02/21 16:00:38;;;;;;;;;;;;;;;;;;5066488;28;19940;-78
2022/02/21 16:03:04;;;;;;;;;;;;;;;;;;5059896;28;20094;-78
2022/02/21 16:05:31;;;;;;;;;;;;;;;;;;5065791;28;20433;-78
2022/02/21 16:07:57;;;;;;;;;;;;;;;;;;5064306;28;19955;-78
2022/02/21 16:10:23;;;;;;;;;;;;;;;;;;5062917;28;19959;-78
2022/02/21 16:12:49;;;;;;;;;;;;;;;;;;5066303;28;19955;-78
2022/02/21 16:15:15;;;;;;;;;;;;;;;;;;5070385;28;20397;-77
2022/02/21 16:17:42;;;;;;;;;;;;;;;;;;5069136;28;19999;-79
2022/02/21 16:20:08;;;;;;;;;;;;;;;;;;5065840;28;19983;-78
2022/02/21 16:22:34;;;;;;;;;;;;;;;;;;5063120;28;20398;-77
2022/02/21 16:25:00;;;;;;;;;;;;;;;;;;5062270;28;19951;-77
2022/02/21 16:27:26;;;;;;;;;;;;;;;;;;5063792;28;19956;-77
2022/02/21 16:29:53;;;;;;;;;;;;;;;;;;5065897;28;19952;-77
2022/02/21 16:32:22;;;;;;;;;;;;;;;;;;5061960;28;19966;-77
2022/02/21 16:34:49;;;;;;;;;;;;;;;;;;5062245;28;19994;-77
2022/02/21 16:37:15;;;;;;;;;;;;;;;;;;5066619;28;19960;-78
2022/02/21 16:39:41;;;;;;;;;;;;;;;;;;5065855;28;20399;-78